sensor_id;sensor_type;location;lat;lon;timestamp;temperature;humidity
26952;DHT22;14507;52.418;13.398;2024-01-07T00:01:34;-0.50;99.90
26952;DHT22;14507;52.418;13.398;2024-01-07T00:03:59;-0.50;99.90
26952;DHT22;14507;52.418;13.398;2024-01-07T00:06:25;-0.50;99.90
26952;DHT22;14507;52.418;13.398;2024-01-07T00:08:50;-0.50;99.90
26952;DHT22;14507;52.418;13.398;2024-01-07T00:11:16;-0.50;99.90
26952;DHT22;14507;52.418;13.398;2024-01-07T00:13:42;-0.50;99.90
26952;DHT22;14507;52.418;13.398;2024-01-07T00:16:07;-0.50;99.90
26952;DHT22;14507;52.418;13.398;2024-01-07T00:18:33;-0.20;99.90
26952;DHT22;14507;52.418;13.398;2024-01-07T00:20:59;-0.50;99.90
26952;DHT22;14507;52.418;13.398;2024-01-07T00:23:24;-0.50;99.90
26952;DHT22;14507;52.418;13.398;2024-01-07T00:25:50;-0.50;99.90
26952;DHT22;14507;52.418;13.398;2024-01-07T00:28:15;-0.50;99.90
26952;DHT22;14507;52.418;13.398;2024-01-07T00:30:41;-0.50;99.90
26952;DHT22;14507;52.418;13.398;2024-01-07T00:33:07;-0.50;99.90
26952;DHT22;14507;52.418;13.398;2024-01-07T00:35:32;-0.40;99.90
26952;DHT22;14507;52.418;13.398;2024-01-07T00:37:58;-0.50;99.90
26952;DHT22;14507;52.418;13.398;2024-01-07T00:40:24;-0.50;99.90
26952;DHT22;14507;52.418;13.398;2024-01-07T00:42:50;-0.50;99.90
26952;DHT22;14507;52.418;13.398;2024-01-07T00:45:17;-0.50;99.90
26952;DHT22;14507;52.418;13.398;2024-01-07T00:47:43;-0.50;99.90
26952;DHT22;14507;52.418;13.398;2024-01-07T00:50:09;-0.50;99.90
26952;DHT22;14507;52.418;13.398;2024-01-07T00:52:34;-0.60;99.90
26952;DHT22;14507;52.418;13.398;2024-01-07T00:55:03;-0.60;99.90
26952;DHT22;14507;52.418;13.398;2024-01-07T00:57:29;-0.60;99.90
26952;DHT22;14507;52.418;13.398;2024-01-07T00:59:55;-0.50;99.90
26952;DHT22;14507;52.418;13.398;2024-01-07T01:02:20;-0.60;99.90
26952;DHT22;14507;52.418;13.398;2024-01-07T01:04:46;-0.60;99.90
26952;DHT22;14507;52.418;13.398;2024-01-07T01:07:11;-0.60;99.90
26952;DHT22;14507;52.418;13.398;2024-01-07T01:09:37;-0.10;99.90
26952;DHT22;14507;52.418;13.398;2024-01-07T01:12:03;-0.60;99.90
26952;DHT22;14507;52.418;13.398;2024-01-07T01:14:29;-0.60;99.90
26952;DHT22;14507;52.418;13.398;2024-01-07T01:16:54;-0.70;99.90
26952;DHT22;14507;52.418;13.398;2024-01-07T01:19:20;-0.70;99.90
26952;DHT22;14507;52.418;13.398;2024-01-07T01:21:46;-0.20;99.90
26952;DHT22;14507;52.418;13.398;2024-01-07T01:24:11;-0.70;99.90
26952;DHT22;14507;52.418;13.398;2024-01-07T01:26:37;-0.70;99.90
26952;DHT22;14507;52.418;13.398;2024-01-07T01:29:04;-0.80;99.90
26952;DHT22;14507;52.418;13.398;2024-01-07T01:31:30;-0.80;99.90
26952;DHT22;14507;52.418;13.398;2024-01-07T01:33:56;-0.90;99.90
26952;DHT22;14507;52.418;13.398;2024-01-07T01:36:21;-0.90;99.90
26952;DHT22;14507;52.418;13.398;2024-01-07T01:38:47;-0.90;99.90
26952;DHT22;14507;52.418;13.398;2024-01-07T01:41:14;-1.00;99.90
26952;DHT22;14507;52.418;13.398;2024-01-07T01:43:40;-1.00;99.90
26952;DHT22;14507;52.418;13.398;2024-01-07T01:46:05;-1.00;99.90
26952;DHT22;14507;52.418;13.398;2024-01-07T01:48:32;-1.00;99.90
26952;DHT22;14507;52.418;13.398;2024-01-07T01:50:58;-1.00;99.90
26952;DHT22;14507;52.418;13.398;2024-01-07T01:53:26;-0.30;99.90
26952;DHT22;14507;52.418;13.398;2024-01-07T01:55:52;0.10;99.90
26952;DHT22;14507;52.418;13.398;2024-01-07T01:58:19;-0.40;99.90
26952;DHT22;14507;52.418;13.398;2024-01-07T02:00:45;-1.10;99.90
26952;DHT22;14507;52.418;13.398;2024-01-07T02:03:11;-1.10;99.90
26952;DHT22;14507;52.418;13.398;2024-01-07T02:05:36;-1.20;99.90
26952;DHT22;14507;52.418;13.398;2024-01-07T02:08:02;-1.20;99.90
26952;DHT22;14507;52.418;13.398;2024-01-07T02:10:29;-1.20;99.90
26952;DHT22;14507;52.418;13.398;2024-01-07T02:13:00;-1.20;99.90
26952;DHT22;14507;52.418;13.398;2024-01-07T02:15:25;-1.20;99.90
26952;DHT22;14507;52.418;13.398;2024-01-07T02:17:51;-1.20;99.90
26952;DHT22;14507;52.418;13.398;2024-01-07T02:20:17;-1.20;99.90
26952;DHT22;14507;52.418;13.398;2024-01-07T02:22:43;-1.20;99.90
26952;DHT22;14507;52.418;13.398;2024-01-07T02:25:08;-1.20;99.90
26952;DHT22;14507;52.418;13.398;2024-01-07T02:27:34;-1.20;99.90
26952;DHT22;14507;52.418;13.398;2024-01-07T02:30:00;-1.30;99.90
26952;DHT22;14507;52.418;13.398;2024-01-07T02:32:25;-1.30;99.90
26952;DHT22;14507;52.418;13.398;2024-01-07T02:34:52;-1.30;99.90
26952;DHT22;14507;52.418;13.398;2024-01-07T02:37:18;-1.30;99.90
26952;DHT22;14507;52.418;13.398;2024-01-07T02:39:43;-1.30;99.90
26952;DHT22;14507;52.418;13.398;2024-01-07T02:42:10;-1.30;99.90
26952;DHT22;14507;52.418;13.398;2024-01-07T02:44:35;-1.40;99.90
26952;DHT22;14507;52.418;13.398;2024-01-07T02:47:01;-1.40;99.90
26952;DHT22;14507;52.418;13.398;2024-01-07T02:49:28;-1.40;99.90
26952;DHT22;14507;52.418;13.398;2024-01-07T02:51:54;-1.40;99.90
26952;DHT22;14507;52.418;13.398;2024-01-07T02:54:19;-1.10;99.90
26952;DHT22;14507;52.418;13.398;2024-01-07T02:56:45;-1.60;99.90
26952;DHT22;14507;52.418;13.398;2024-01-07T02:59:11;-1.60;99.90
26952;DHT22;14507;52.418;13.398;2024-01-07T03:01:36;-1.60;99.90
26952;DHT22;14507;52.418;13.398;2024-01-07T03:04:16;-1.60;99.90
26952;DHT22;14507;52.418;13.398;2024-01-07T03:06:42;-1.60;99.90
26952;DHT22;14507;52.418;13.398;2024-01-07T03:09:08;-1.70;99.90
26952;DHT22;14507;52.418;13.398;2024-01-07T03:11:39;-1.70;99.90
26952;DHT22;14507;52.418;13.398;2024-01-07T03:14:04;-1.80;99.90
26952;DHT22;14507;52.418;13.398;2024-01-07T03:16:30;-1.80;99.90
26952;DHT22;14507;52.418;13.398;2024-01-07T03:18:55;-1.90;99.90
26952;DHT22;14507;52.418;13.398;2024-01-07T03:21:23;-1.90;99.90
26952;DHT22;14507;52.418;13.398;2024-01-07T03:23:49;-1.90;99.90
26952;DHT22;14507;52.418;13.398;2024-01-07T03:26:16;-1.90;99.90
26952;DHT22;14507;52.418;13.398;2024-01-07T03:28:43;-2.00;99.90
26952;DHT22;14507;52.418;13.398;2024-01-07T03:31:10;-2.00;99.90
26952;DHT22;14507;52.418;13.398;2024-01-07T03:33:37;-2.00;99.90
26952;DHT22;14507;52.418;13.398;2024-01-07T03:36:08;-2.00;99.90
26952;DHT22;14507;52.418;13.398;2024-01-07T03:38:34;-2.00;99.90
26952;DHT22;14507;52.418;13.398;2024-01-07T03:41:00;-2.10;99.90
26952;DHT22;14507;52.418;13.398;2024-01-07T03:43:25;-2.10;99.90
26952;DHT22;14507;52.418;13.398;2024-01-07T03:45:51;-2.10;99.90
26952;DHT22;14507;52.418;13.398;2024-01-07T03:48:17;-2.10;99.90
26952;DHT22;14507;52.418;13.398;2024-01-07T03:50:42;-2.10;99.90
26952;DHT22;14507;52.418;13.398;2024-01-07T03:53:09;-2.20;99.90
26952;DHT22;14507;52.418;13.398;2024-01-07T03:55:34;-2.20;99.90
26952;DHT22;14507;52.418;13.398;2024-01-07T03:58:00;-2.20;99.90
26952;DHT22;14507;52.418;13.398;2024-01-07T04:00:25;-2.20;99.90
26952;DHT22;14507;52.418;13.398;2024-01-07T04:02:51;-2.20;99.90
26952;DHT22;14507;52.418;13.398;2024-01-07T04:05:16;-2.20;99.90
26952;DHT22;14507;52.418;13.398;2024-01-07T04:07:42;-2.00;99.90
26952;DHT22;14507;52.418;13.398;2024-01-07T04:10:08;-2.20;99.90
26952;DHT22;14507;52.418;13.398;2024-01-07T04:12:34;-2.20;99.90
26952;DHT22;14507;52.418;13.398;2024-01-07T04:14:59;-1.80;99.90
26952;DHT22;14507;52.418;13.398;2024-01-07T04:17:25;-2.30;99.90
26952;DHT22;14507;52.418;13.398;2024-01-07T04:19:52;-2.30;99.90
26952;DHT22;14507;52.418;13.398;2024-01-07T04:22:17;-2.30;99.90
26952;DHT22;14507;52.418;13.398;2024-01-07T04:24:43;-2.30;99.90
26952;DHT22;14507;52.418;13.398;2024-01-07T04:27:09;-2.30;99.90
26952;DHT22;14507;52.418;13.398;2024-01-07T04:29:35;-2.30;99.90
26952;DHT22;14507;52.418;13.398;2024-01-07T04:32:01;-2.40;99.90
26952;DHT22;14507;52.418;13.398;2024-01-07T04:34:26;-2.40;99.90
26952;DHT22;14507;52.418;13.398;2024-01-07T04:36:52;-2.40;99.90
26952;DHT22;14507;52.418;13.398;2024-01-07T04:39:18;-2.40;99.90
26952;DHT22;14507;52.418;13.398;2024-01-07T04:41:43;-2.40;99.90
26952;DHT22;14507;52.418;13.398;2024-01-07T04:44:09;-2.40;99.90
26952;DHT22;14507;52.418;13.398;2024-01-07T04:46:37;-2.40;99.90
26952;DHT22;14507;52.418;13.398;2024-01-07T04:49:04;-2.40;99.90
26952;DHT22;14507;52.418;13.398;2024-01-07T04:51:31;-2.40;99.90
26952;DHT22;14507;52.418;13.398;2024-01-07T04:53:57;-2.40;99.90
26952;DHT22;14507;52.418;13.398;2024-01-07T04:56:22;-2.40;99.90
26952;DHT22;14507;52.418;13.398;2024-01-07T04:58:48;-2.40;99.90
26952;DHT22;14507;52.418;13.398;2024-01-07T05:01:14;-2.40;99.90
26952;DHT22;14507;52.418;13.398;2024-01-07T05:03:40;-2.40;99.90
26952;DHT22;14507;52.418;13.398;2024-01-07T05:06:08;-2.40;99.90
26952;DHT22;14507;52.418;13.398;2024-01-07T05:08:33;-2.40;99.90
26952;DHT22;14507;52.418;13.398;2024-01-07T05:10:59;-2.40;99.90
26952;DHT22;14507;52.418;13.398;2024-01-07T05:13:24;-2.40;99.90
26952;DHT22;14507;52.418;13.398;2024-01-07T05:15:50;-2.40;99.90
26952;DHT22;14507;52.418;13.398;2024-01-07T05:18:22;-2.40;99.90
26952;DHT22;14507;52.418;13.398;2024-01-07T05:20:49;-2.40;99.90
26952;DHT22;14507;52.418;13.398;2024-01-07T05:23:14;-2.40;99.90
26952;DHT22;14507;52.418;13.398;2024-01-07T05:25:43;-2.50;99.90
26952;DHT22;14507;52.418;13.398;2024-01-07T05:28:09;-2.00;99.90
26952;DHT22;14507;52.418;13.398;2024-01-07T05:30:34;-2.40;99.90
26952;DHT22;14507;52.418;13.398;2024-01-07T05:33:00;-2.50;99.90
26952;DHT22;14507;52.418;13.398;2024-01-07T05:35:26;-2.50;99.90
26952;DHT22;14507;52.418;13.398;2024-01-07T05:37:51;-2.50;99.90
26952;DHT22;14507;52.418;13.398;2024-01-07T05:40:17;-2.50;99.90
26952;DHT22;14507;52.418;13.398;2024-01-07T05:42:43;-2.50;99.90
26952;DHT22;14507;52.418;13.398;2024-01-07T05:45:08;-2.50;99.90
26952;DHT22;14507;52.418;13.398;2024-01-07T05:47:34;-2.50;99.90
26952;DHT22;14507;52.418;13.398;2024-01-07T05:50:00;-2.50;99.90
26952;DHT22;14507;52.418;13.398;2024-01-07T05:52:25;-2.50;99.90
26952;DHT22;14507;52.418;13.398;2024-01-07T05:54:51;-2.50;99.90
26952;DHT22;14507;52.418;13.398;2024-01-07T05:57:16;-2.50;99.90
26952;DHT22;14507;52.418;13.398;2024-01-07T05:59:43;-2.50;99.90
26952;DHT22;14507;52.418;13.398;2024-01-07T06:02:09;-2.60;99.90
26952;DHT22;14507;52.418;13.398;2024-01-07T06:04:37;-2.40;99.90
26952;DHT22;14507;52.418;13.398;2024-01-07T06:07:03;-2.50;99.90
26952;DHT22;14507;52.418;13.398;2024-01-07T06:09:28;-2.60;99.90
26952;DHT22;14507;52.418;13.398;2024-01-07T06:11:54;-2.60;99.90
26952;DHT22;14507;52.418;13.398;2024-01-07T06:14:21;-2.60;99.90
26952;DHT22;14507;52.418;13.398;2024-01-07T06:16:47;-2.60;99.90
26952;DHT22;14507;52.418;13.398;2024-01-07T06:19:12;-2.60;99.90
26952;DHT22;14507;52.418;13.398;2024-01-07T06:21:40;-2.60;99.90
26952;DHT22;14507;52.418;13.398;2024-01-07T06:24:07;-2.60;99.90
26952;DHT22;14507;52.418;13.398;2024-01-07T06:26:33;-2.60;99.90
26952;DHT22;14507;52.418;13.398;2024-01-07T06:28:59;-2.50;99.90
26952;DHT22;14507;52.418;13.398;2024-01-07T06:31:25;-2.50;99.90
26952;DHT22;14507;52.418;13.398;2024-01-07T06:33:51;-2.50;99.90
26952;DHT22;14507;52.418;13.398;2024-01-07T06:36:17;-2.50;99.90
26952;DHT22;14507;52.418;13.398;2024-01-07T06:38:43;-2.50;99.90
26952;DHT22;14507;52.418;13.398;2024-01-07T06:41:11;-2.50;99.90
26952;DHT22;14507;52.418;13.398;2024-01-07T06:43:38;-2.50;99.90
26952;DHT22;14507;52.418;13.398;2024-01-07T06:46:04;-2.50;99.90
26952;DHT22;14507;52.418;13.398;2024-01-07T06:48:30;-2.50;99.90
26952;DHT22;14507;52.418;13.398;2024-01-07T06:50:55;-2.50;99.90
26952;DHT22;14507;52.418;13.398;2024-01-07T06:53:21;-2.50;99.90
26952;DHT22;14507;52.418;13.398;2024-01-07T06:55:47;-2.50;99.90
26952;DHT22;14507;52.418;13.398;2024-01-07T06:58:13;-2.50;99.90
26952;DHT22;14507;52.418;13.398;2024-01-07T07:00:38;-2.50;99.90
26952;DHT22;14507;52.418;13.398;2024-01-07T07:03:04;-2.50;99.90
26952;DHT22;14507;52.418;13.398;2024-01-07T07:05:30;-2.40;99.90
26952;DHT22;14507;52.418;13.398;2024-01-07T07:07:57;-2.50;99.90
26952;DHT22;14507;52.418;13.398;2024-01-07T07:10:22;-2.40;99.90
26952;DHT22;14507;52.418;13.398;2024-01-07T07:12:48;-2.40;99.90
26952;DHT22;14507;52.418;13.398;2024-01-07T07:15:13;-2.40;99.90
26952;DHT22;14507;52.418;13.398;2024-01-07T07:17:39;-2.40;99.90
26952;DHT22;14507;52.418;13.398;2024-01-07T07:20:06;-1.70;99.90
26952;DHT22;14507;52.418;13.398;2024-01-07T07:22:32;-2.30;99.90
26952;DHT22;14507;52.418;13.398;2024-01-07T07:24:57;-2.30;99.90
26952;DHT22;14507;52.418;13.398;2024-01-07T07:27:23;-2.30;99.90
26952;DHT22;14507;52.418;13.398;2024-01-07T07:29:50;-2.30;99.90
26952;DHT22;14507;52.418;13.398;2024-01-07T07:32:15;-2.30;99.90
26952;DHT22;14507;52.418;13.398;2024-01-07T07:34:41;-2.20;99.90
26952;DHT22;14507;52.418;13.398;2024-01-07T07:37:06;-2.20;99.90
26952;DHT22;14507;52.418;13.398;2024-01-07T07:39:32;-2.20;99.90
26952;DHT22;14507;52.418;13.398;2024-01-07T07:41:58;-2.20;99.90
26952;DHT22;14507;52.418;13.398;2024-01-07T07:44:23;-2.20;99.90
26952;DHT22;14507;52.418;13.398;2024-01-07T07:46:49;-2.10;99.90
26952;DHT22;14507;52.418;13.398;2024-01-07T07:49:15;-2.10;99.90
26952;DHT22;14507;52.418;13.398;2024-01-07T07:51:43;-2.00;99.90
26952;DHT22;14507;52.418;13.398;2024-01-07T07:54:09;-2.00;99.90
26952;DHT22;14507;52.418;13.398;2024-01-07T07:56:34;-2.00;99.90
26952;DHT22;14507;52.418;13.398;2024-01-07T07:59:02;-1.90;99.90
26952;DHT22;14507;52.418;13.398;2024-01-07T08:01:28;-1.90;99.90
26952;DHT22;14507;52.418;13.398;2024-01-07T08:03:53;-1.90;99.90
26952;DHT22;14507;52.418;13.398;2024-01-07T08:06:19;-1.90;99.90
26952;DHT22;14507;52.418;13.398;2024-01-07T08:08:45;-1.80;99.90
26952;DHT22;14507;52.418;13.398;2024-01-07T08:11:10;-1.80;99.90
26952;DHT22;14507;52.418;13.398;2024-01-07T08:13:37;-1.80;99.90
26952;DHT22;14507;52.418;13.398;2024-01-07T08:16:03;-1.70;99.90
26952;DHT22;14507;52.418;13.398;2024-01-07T08:18:29;-1.70;99.90
26952;DHT22;14507;52.418;13.398;2024-01-07T08:20:55;-1.60;99.90
26952;DHT22;14507;52.418;13.398;2024-01-07T08:23:20;-1.60;99.90
26952;DHT22;14507;52.418;13.398;2024-01-07T08:25:46;-1.60;99.90
26952;DHT22;14507;52.418;13.398;2024-01-07T08:28:12;-1.60;99.90
26952;DHT22;14507;52.418;13.398;2024-01-07T08:30:37;-1.60;99.90
26952;DHT22;14507;52.418;13.398;2024-01-07T08:33:03;-1.60;99.90
26952;DHT22;14507;52.418;13.398;2024-01-07T08:35:29;-1.60;99.90
26952;DHT22;14507;52.418;13.398;2024-01-07T08:37:54;-1.60;99.90
26952;DHT22;14507;52.418;13.398;2024-01-07T08:40:20;-1.50;99.90
26952;DHT22;14507;52.418;13.398;2024-01-07T08:42:45;-1.50;99.90
26952;DHT22;14507;52.418;13.398;2024-01-07T08:45:12;-1.40;99.90
26952;DHT22;14507;52.418;13.398;2024-01-07T08:47:38;-1.40;99.90
26952;DHT22;14507;52.418;13.398;2024-01-07T08:50:05;-1.40;99.90
26952;DHT22;14507;52.418;13.398;2024-01-07T08:52:30;-1.40;99.90
26952;DHT22;14507;52.418;13.398;2024-01-07T08:54:56;-1.40;99.90
26952;DHT22;14507;52.418;13.398;2024-01-07T08:57:22;-1.30;99.90
26952;DHT22;14507;52.418;13.398;2024-01-07T08:59:47;-1.30;99.90
26952;DHT22;14507;52.418;13.398;2024-01-07T09:02:13;-1.30;99.90
26952;DHT22;14507;52.418;13.398;2024-01-07T09:04:39;-1.30;99.90
26952;DHT22;14507;52.418;13.398;2024-01-07T09:07:05;-1.10;99.90
26952;DHT22;14507;52.418;13.398;2024-01-07T09:09:30;-1.00;99.90
26952;DHT22;14507;52.418;13.398;2024-01-07T09:11:56;-1.10;99.90
26952;DHT22;14507;52.418;13.398;2024-01-07T09:14:23;-1.10;99.90
26952;DHT22;14507;52.418;13.398;2024-01-07T09:16:50;-0.50;99.90
26952;DHT22;14507;52.418;13.398;2024-01-07T09:19:16;-1.00;99.90
26952;DHT22;14507;52.418;13.398;2024-01-07T09:21:43;-1.00;99.90
26952;DHT22;14507;52.418;13.398;2024-01-07T09:24:09;-0.90;99.90
26952;DHT22;14507;52.418;13.398;2024-01-07T09:26:34;-0.90;99.90
26952;DHT22;14507;52.418;13.398;2024-01-07T09:29:00;-0.80;99.90
26952;DHT22;14507;52.418;13.398;2024-01-07T09:31:27;-0.80;99.90
26952;DHT22;14507;52.418;13.398;2024-01-07T09:33:52;-0.80;99.90
26952;DHT22;14507;52.418;13.398;2024-01-07T09:36:18;-0.70;99.90
26952;DHT22;14507;52.418;13.398;2024-01-07T09:38:44;-0.70;99.90
26952;DHT22;14507;52.418;13.398;2024-01-07T09:41:10;-0.80;99.90
26952;DHT22;14507;52.418;13.398;2024-01-07T09:43:35;-0.70;99.90
26952;DHT22;14507;52.418;13.398;2024-01-07T09:46:02;-0.70;99.90
26952;DHT22;14507;52.418;13.398;2024-01-07T09:48:28;-0.70;99.90
26952;DHT22;14507;52.418;13.398;2024-01-07T09:50:55;-0.70;99.90
26952;DHT22;14507;52.418;13.398;2024-01-07T09:53:25;-0.60;99.90
26952;DHT22;14507;52.418;13.398;2024-01-07T09:56:11;-0.50;99.90
26952;DHT22;14507;52.418;13.398;2024-01-07T09:58:42;-0.50;99.90
26952;DHT22;14507;52.418;13.398;2024-01-07T10:01:08;-0.30;99.90
26952;DHT22;14507;52.418;13.398;2024-01-07T10:03:33;-0.40;99.90
26952;DHT22;14507;52.418;13.398;2024-01-07T10:05:59;-0.40;99.90
26952;DHT22;14507;52.418;13.398;2024-01-07T10:08:25;-0.30;99.90
26952;DHT22;14507;52.418;13.398;2024-01-07T10:10:50;-0.30;99.90
26952;DHT22;14507;52.418;13.398;2024-01-07T10:13:16;-0.30;99.90
26952;DHT22;14507;52.418;13.398;2024-01-07T10:15:41;-0.30;99.90
26952;DHT22;14507;52.418;13.398;2024-01-07T10:18:07;-0.20;99.90
26952;DHT22;14507;52.418;13.398;2024-01-07T10:20:34;-0.20;99.90
26952;DHT22;14507;52.418;13.398;2024-01-07T10:23:03;-0.20;99.90
26952;DHT22;14507;52.418;13.398;2024-01-07T10:25:32;-0.10;99.90
26952;DHT22;14507;52.418;13.398;2024-01-07T10:28:01;-0.20;99.90
26952;DHT22;14507;52.418;13.398;2024-01-07T10:30:28;-0.10;99.90
26952;DHT22;14507;52.418;13.398;2024-01-07T10:33:00;-0.10;99.90
26952;DHT22;14507;52.418;13.398;2024-01-07T10:35:29;-0.20;99.90
26952;DHT22;14507;52.418;13.398;2024-01-07T10:37:59;-0.20;99.90
26952;DHT22;14507;52.418;13.398;2024-01-07T10:40:26;0.30;99.90
26952;DHT22;14507;52.418;13.398;2024-01-07T10:42:52;-0.20;99.90
26952;DHT22;14507;52.418;13.398;2024-01-07T10:45:20;-0.30;99.90
26952;DHT22;14507;52.418;13.398;2024-01-07T10:47:48;-0.20;99.90
26952;DHT22;14507;52.418;13.398;2024-01-07T10:50:16;-0.10;99.90
26952;DHT22;14507;52.418;13.398;2024-01-07T10:52:45;-0.10;99.90
26952;DHT22;14507;52.418;13.398;2024-01-07T10:55:15;-0.10;99.90
26952;DHT22;14507;52.418;13.398;2024-01-07T10:57:44;-0.10;99.90
26952;DHT22;14507;52.418;13.398;2024-01-07T11:00:11;-0.10;99.90
26952;DHT22;14507;52.418;13.398;2024-01-07T11:08:20;-0.10;99.90
26952;DHT22;14507;52.418;13.398;2024-01-07T11:10:50;-0.20;99.90
26952;DHT22;14507;52.418;13.398;2024-01-07T11:13:32;-0.10;99.90
26952;DHT22;14507;52.418;13.398;2024-01-07T11:15:58;-0.20;99.90
26952;DHT22;14507;52.418;13.398;2024-01-07T11:18:26;-0.10;99.90
26952;DHT22;14507;52.418;13.398;2024-01-07T11:20:59;-0.10;99.90
26952;DHT22;14507;52.418;13.398;2024-01-07T11:23:37;-0.10;99.90
26952;DHT22;14507;52.418;13.398;2024-01-07T11:26:08;-0.10;99.90
26952;DHT22;14507;52.418;13.398;2024-01-07T11:31:09;-0.10;99.90
26952;DHT22;14507;52.418;13.398;2024-01-07T11:33:36;-0.10;99.90
26952;DHT22;14507;52.418;13.398;2024-01-07T11:36:04;0.70;99.90
26952;DHT22;14507;52.418;13.398;2024-01-07T11:38:29;0.00;99.90
26952;DHT22;14507;52.418;13.398;2024-01-07T11:40:56;0.00;99.90
26952;DHT22;14507;52.418;13.398;2024-01-07T11:43:22;0.00;99.90
26952;DHT22;14507;52.418;13.398;2024-01-07T11:45:51;0.00;99.90
26952;DHT22;14507;52.418;13.398;2024-01-07T11:48:18;0.10;99.90
26952;DHT22;14507;52.418;13.398;2024-01-07T11:50:44;0.10;99.90
26952;DHT22;14507;52.418;13.398;2024-01-07T11:53:11;0.40;99.90
26952;DHT22;14507;52.418;13.398;2024-01-07T11:55:37;0.20;99.90
26952;DHT22;14507;52.418;13.398;2024-01-07T11:58:03;0.20;99.90
26952;DHT22;14507;52.418;13.398;2024-01-07T12:00:33;0.20;99.90
26952;DHT22;14507;52.418;13.398;2024-01-07T12:03:02;0.20;99.90
26952;DHT22;14507;52.418;13.398;2024-01-07T12:05:29;0.20;99.90
26952;DHT22;14507;52.418;13.398;2024-01-07T12:07:54;0.30;99.90
26952;DHT22;14507;52.418;13.398;2024-01-07T12:10:20;0.30;99.90
26952;DHT22;14507;52.418;13.398;2024-01-07T12:12:47;0.80;99.90
26952;DHT22;14507;52.418;13.398;2024-01-07T12:15:13;0.40;99.90
26952;DHT22;14507;52.418;13.398;2024-01-07T12:17:41;0.40;99.90
26952;DHT22;14507;52.418;13.398;2024-01-07T12:20:07;0.40;99.90
26952;DHT22;14507;52.418;13.398;2024-01-07T12:22:37;0.40;99.90
26952;DHT22;14507;52.418;13.398;2024-01-07T12:25:05;0.40;99.90
26952;DHT22;14507;52.418;13.398;2024-01-07T12:27:31;0.40;99.90
26952;DHT22;14507;52.418;13.398;2024-01-07T12:29:58;0.40;99.90
26952;DHT22;14507;52.418;13.398;2024-01-07T12:32:30;0.40;99.90
26952;DHT22;14507;52.418;13.398;2024-01-07T12:34:59;0.40;99.90
26952;DHT22;14507;52.418;13.398;2024-01-07T12:37:28;0.50;99.90
26952;DHT22;14507;52.418;13.398;2024-01-07T12:39:54;0.40;99.90
26952;DHT22;14507;52.418;13.398;2024-01-07T12:42:20;0.40;99.90
26952;DHT22;14507;52.418;13.398;2024-01-07T12:44:50;0.60;99.90
26952;DHT22;14507;52.418;13.398;2024-01-07T12:47:16;0.60;99.90
26952;DHT22;14507;52.418;13.398;2024-01-07T12:49:41;0.60;99.90
26952;DHT22;14507;52.418;13.398;2024-01-07T12:52:07;0.60;99.90
26952;DHT22;14507;52.418;13.398;2024-01-07T12:54:34;0.70;99.90
26952;DHT22;14507;52.418;13.398;2024-01-07T12:57:00;0.60;99.90
26952;DHT22;14507;52.418;13.398;2024-01-07T12:59:26;0.60;99.90
26952;DHT22;14507;52.418;13.398;2024-01-07T13:01:52;0.60;99.90
26952;DHT22;14507;52.418;13.398;2024-01-07T13:04:18;0.50;99.90
26952;DHT22;14507;52.418;13.398;2024-01-07T13:06:44;0.60;99.90
26952;DHT22;14507;52.418;13.398;2024-01-07T13:09:11;0.60;99.90
26952;DHT22;14507;52.418;13.398;2024-01-07T13:11:39;0.60;99.90
26952;DHT22;14507;52.418;13.398;2024-01-07T13:14:05;0.60;99.90
26952;DHT22;14507;52.418;13.398;2024-01-07T13:16:31;0.70;99.90
26952;DHT22;14507;52.418;13.398;2024-01-07T13:18:57;0.60;99.90
26952;DHT22;14507;52.418;13.398;2024-01-07T13:21:22;0.60;99.90
26952;DHT22;14507;52.418;13.398;2024-01-07T13:23:48;1.10;99.90
26952;DHT22;14507;52.418;13.398;2024-01-07T13:26:14;0.70;99.90
26952;DHT22;14507;52.418;13.398;2024-01-07T13:28:40;0.50;99.90
26952;DHT22;14507;52.418;13.398;2024-01-07T13:31:07;0.60;99.90
26952;DHT22;14507;52.418;13.398;2024-01-07T13:33:32;0.60;99.90
26952;DHT22;14507;52.418;13.398;2024-01-07T13:35:58;0.60;99.90
26952;DHT22;14507;52.418;13.398;2024-01-07T13:38:24;0.50;99.90
26952;DHT22;14507;52.418;13.398;2024-01-07T13:40:50;0.50;99.90
26952;DHT22;14507;52.418;13.398;2024-01-07T13:43:16;0.50;99.90
26952;DHT22;14507;52.418;13.398;2024-01-07T13:45:41;0.50;99.90
26952;DHT22;14507;52.418;13.398;2024-01-07T13:48:07;0.60;99.90
26952;DHT22;14507;52.418;13.398;2024-01-07T13:50:33;0.70;99.90
26952;DHT22;14507;52.418;13.398;2024-01-07T13:52:59;1.20;99.90
26952;DHT22;14507;52.418;13.398;2024-01-07T13:55:25;0.70;99.90
26952;DHT22;14507;52.418;13.398;2024-01-07T13:57:50;0.70;99.90
26952;DHT22;14507;52.418;13.398;2024-01-07T14:00:16;0.70;99.90
26952;DHT22;14507;52.418;13.398;2024-01-07T14:02:44;0.70;99.90
26952;DHT22;14507;52.418;13.398;2024-01-07T14:05:11;0.70;99.90
26952;DHT22;14507;52.418;13.398;2024-01-07T14:07:37;0.60;99.90
26952;DHT22;14507;52.418;13.398;2024-01-07T14:10:04;0.60;99.90
26952;DHT22;14507;52.418;13.398;2024-01-07T14:12:31;0.70;99.90
26952;DHT22;14507;52.418;13.398;2024-01-07T14:14:57;1.30;99.90
26952;DHT22;14507;52.418;13.398;2024-01-07T14:17:22;1.10;99.90
26952;DHT22;14507;52.418;13.398;2024-01-07T14:19:48;1.60;99.90
26952;DHT22;14507;52.418;13.398;2024-01-07T14:22:15;1.70;99.90
26952;DHT22;14507;52.418;13.398;2024-01-07T14:24:41;1.70;99.90
26952;DHT22;14507;52.418;13.398;2024-01-07T14:27:07;1.50;99.90
26952;DHT22;14507;52.418;13.398;2024-01-07T14:29:32;1.40;99.90
26952;DHT22;14507;52.418;13.398;2024-01-07T14:31:58;1.30;99.90
26952;DHT22;14507;52.418;13.398;2024-01-07T14:34:23;1.20;99.90
26952;DHT22;14507;52.418;13.398;2024-01-07T14:36:49;1.30;99.90
26952;DHT22;14507;52.418;13.398;2024-01-07T14:39:15;1.40;99.90
26952;DHT22;14507;52.418;13.398;2024-01-07T14:41:41;1.50;99.90
26952;DHT22;14507;52.418;13.398;2024-01-07T14:44:06;1.40;99.90
26952;DHT22;14507;52.418;13.398;2024-01-07T14:46:32;1.30;99.90
26952;DHT22;14507;52.418;13.398;2024-01-07T14:48:58;1.20;99.90
26952;DHT22;14507;52.418;13.398;2024-01-07T14:51:23;1.00;99.90
26952;DHT22;14507;52.418;13.398;2024-01-07T14:53:49;1.10;99.90
26952;DHT22;14507;52.418;13.398;2024-01-07T14:56:14;1.00;99.90
26952;DHT22;14507;52.418;13.398;2024-01-07T14:58:40;1.70;99.90
26952;DHT22;14507;52.418;13.398;2024-01-07T15:01:07;1.00;99.90
26952;DHT22;14507;52.418;13.398;2024-01-07T15:03:32;0.90;99.90
26952;DHT22;14507;52.418;13.398;2024-01-07T15:05:58;0.90;99.90
26952;DHT22;14507;52.418;13.398;2024-01-07T15:08:24;0.80;99.90
26952;DHT22;14507;52.418;13.398;2024-01-07T15:10:49;0.90;99.90
26952;DHT22;14507;52.418;13.398;2024-01-07T15:13:15;0.90;99.90
26952;DHT22;14507;52.418;13.398;2024-01-07T15:15:41;0.80;99.90
26952;DHT22;14507;52.418;13.398;2024-01-07T15:18:06;0.80;99.90
26952;DHT22;14507;52.418;13.398;2024-01-07T15:20:32;0.80;99.90
26952;DHT22;14507;52.418;13.398;2024-01-07T15:22:58;0.80;99.90